Time;durP1;ratioP1;P1;durP2;ratioP2;P2;SDS_P1;SDS_P2;PMS_P1;PMS_P2;Temp;Humidity;BMP_temperature;BMP_pressure;BME280_temperature;BME280_humidity;BME280_pressure;Samples;Min_cycle;Max_cycle;Signal;HPM_P1;HPM_P2
2021/10/27 00:01:11;;;;;;;5.73;2.27;;;14.10;99.90;;;;;;6215728;22;20383;-87
2021/10/27 00:03:37;;;;;;;29.27;3.50;;;14.10;99.90;;;;;;6215231;22;20357;-86
2021/10/27 00:06:03;;;;;;;9.53;2.63;;;14.10;99.90;;;;;;6190142;22;20254;-87
2021/10/27 00:08:29;;;;;;;8.57;3.57;;;14.20;99.90;;;;;;6214668;22;20212;-87
2021/10/27 00:10:54;;;;;;;5.30;2.70;;;14.20;99.90;;;;;;6215230;22;20176;-87
2021/10/27 00:13:20;;;;;;;5.67;3.20;;;14.20;99.90;;;;;;6240512;22;20973;-88
2021/10/27 00:15:46;;;;;;;6.33;2.70;;;14.20;99.90;;;;;;6240244;22;20205;-89
2021/10/27 00:18:12;;;;;;;15.90;4.10;;;14.20;99.90;;;;;;6239860;22;20200;-86
2021/10/27 00:20:39;;;;;;;14.07;3.20;;;14.20;99.90;;;;;;6214991;22;20307;-87
2021/10/27 00:23:05;;;;;;;6.13;2.23;;;14.30;99.90;;;;;;6239806;22;20189;-87
2021/10/27 00:25:31;;;;;;;9.73;3.17;;;14.30;99.90;;;;;;6190400;22;20280;-88
2021/10/27 00:27:56;;;;;;;37.27;4.00;;;14.30;99.90;;;;;;6214256;22;20201;-87
2021/10/27 00:30:22;;;;;;;5.33;2.30;;;14.40;99.90;;;;;;6189557;22;20204;-87
2021/10/27 00:32:49;;;;;;;15.20;3.50;;;14.40;99.90;;;;;;6266715;22;20220;-86
2021/10/27 00:35:15;;;;;;;11.33;2.47;;;14.40;99.90;;;;;;6266082;22;20192;-87
2021/10/27 00:37:41;;;;;;;9.23;2.60;;;14.40;99.90;;;;;;6240277;22;20222;-88
2021/10/27 00:40:08;;;;;;;3.77;2.43;;;14.40;99.90;;;;;;6215141;22;20163;-87
2021/10/27 00:42:34;;;;;;;6.53;3.47;;;14.40;99.90;;;;;;6239403;22;20200;-86
2021/10/27 00:45:00;;;;;;;17.93;4.07;;;14.50;99.90;;;;;;6215195;22;20192;-86
2021/10/27 00:47:27;;;;;;;14.63;2.97;;;14.50;99.90;;;;;;6214629;22;20227;-86
2021/10/27 00:49:53;;;;;;;2.77;1.80;;;14.50;99.90;;;;;;6240267;22;20153;-87
2021/10/27 00:52:19;;;;;;;4.57;2.07;;;14.50;99.90;;;;;;6241073;22;20172;-87
2021/10/27 00:54:48;;;;;;;8.77;2.27;;;14.50;99.90;;;;;;6215543;22;20208;-87
2021/10/27 00:57:16;;;;;;;7.77;2.43;;;14.60;99.90;;;;;;6240068;22;20711;-87
2021/10/27 00:59:44;;;;;;;9.97;3.40;;;14.60;99.90;;;;;;6267956;22;20200;-86
2021/10/27 01:02:11;;;;;;;4.47;1.90;;;14.60;99.90;;;;;;6268511;22;20193;-87
2021/10/27 01:04:37;;;;;;;7.53;2.00;;;14.60;99.90;;;;;;6270206;22;20161;-87
2021/10/27 01:07:04;;;;;;;7.80;2.63;;;14.70;99.90;;;;;;6269513;22;20211;-88
2021/10/27 01:09:30;;;;;;;3.63;1.90;;;14.60;99.90;;;;;;6268140;22;20217;-89
2021/10/27 01:11:58;;;;;;;12.50;2.67;;;14.70;99.90;;;;;;6216558;22;20603;-87
2021/10/27 01:14:36;;;;;;;5.53;1.90;;;14.70;99.90;;;;;;6241513;22;20271;-87
2021/10/27 01:17:05;;;;;;;6.97;1.87;;;14.60;99.90;;;;;;6242188;22;20200;-87
2021/10/27 01:19:54;;;;;;;14.23;2.23;;;14.70;99.90;;;;;;6242677;22;20580;-86
2021/10/27 01:22:35;;;;;;;4.10;1.43;;;14.70;99.90;;;;;;6242106;22;20225;-88
2021/10/27 01:25:04;;;;;;;6.37;1.57;;;14.80;99.90;;;;;;6268979;22;20619;-88
2021/10/27 01:27:31;;;;;;;6.33;1.70;;;14.80;99.90;;;;;;6242092;22;20213;-88
2021/10/27 01:29:57;;;;;;;10.37;1.43;;;14.80;99.90;;;;;;6242468;22;20193;-87
2021/10/27 01:32:37;;;;;;;7.43;2.20;;;14.80;99.90;;;;;;6216973;22;20192;-88
2021/10/27 01:35:03;;;;;;;8.17;3.03;;;14.90;99.90;;;;;;6269048;22;20214;-88
2021/10/27 01:37:29;;;;;;;6.70;1.33;;;14.90;99.90;;;;;;6269467;22;20226;-87
2021/10/27 01:39:55;;;;;;;5.20;1.50;;;14.90;99.90;;;;;;6241971;22;20197;-88
2021/10/27 01:42:21;;;;;;;4.63;1.50;;;14.90;99.90;;;;;;6242656;22;20643;-88
2021/10/27 01:44:47;;;;;;;12.37;2.50;;;14.90;99.90;;;;;;6216688;22;20282;-87
2021/10/27 01:47:14;;;;;;;4.77;2.27;;;14.90;99.90;;;;;;6241298;22;20207;-88
2021/10/27 01:49:39;;;;;;;4.77;1.20;;;14.90;99.90;;;;;;6242649;22;20161;-88
2021/10/27 01:52:05;;;;;;;4.43;1.00;;;15.00;99.90;;;;;;6216463;22;20163;-88
2021/10/27 01:54:31;;;;;;;8.13;1.60;;;14.90;99.90;;;;;;6241907;22;20646;-89
2021/10/27 01:56:57;;;;;;;7.13;1.60;;;15.00;99.90;;;;;;6268432;22;20201;-88
2021/10/27 01:59:23;;;;;;;6.23;2.13;;;15.00;99.90;;;;;;6216489;22;20200;-89
2021/10/27 02:01:52;;;;;;;8.53;1.43;;;15.00;99.90;;;;;;6243899;22;20157;-88
2021/10/27 02:04:18;;;;;;;5.67;2.10;;;15.00;99.90;;;;;;6194351;22;20244;-89
2021/10/27 02:06:44;;;;;;;17.57;3.17;;;15.00;99.90;;;;;;6245102;22;20286;-87
2021/10/27 02:09:10;;;;;;;11.20;2.53;;;15.00;99.90;;;;;;6244792;22;20523;-90
2021/10/27 02:11:36;;;;;;;2.50;1.40;;;15.00;99.90;;;;;;6220114;22;20521;-88
2021/10/27 02:14:01;;;;;;;3.60;1.53;;;15.00;99.90;;;;;;6193752;22;20208;-87
2021/10/27 02:16:28;;;;;;;5.93;1.60;;;14.90;99.90;;;;;;6220640;22;20160;-89
2021/10/27 02:18:54;;;;;;;5.80;1.43;;;14.90;99.90;;;;;;6245986;22;20200;-88
2021/10/27 02:21:20;;;;;;;8.30;1.80;;;14.90;99.90;;;;;;6249362;22;20239;-87
2021/10/27 02:23:48;;;;;;;4.90;1.53;;;14.80;99.90;;;;;;6276924;22;20203;-89
2021/10/27 02:26:15;;;;;;;5.93;1.77;;;14.80;99.90;;;;;;6222042;22;20712;-88
2021/10/27 02:28:41;;;;;;;4.37;2.17;;;14.80;99.90;;;;;;6237885;22;20196;-90
2021/10/27 02:31:07;;;;;;;2.73;1.50;;;14.70;99.90;;;;;;6213503;22;20239;-89
2021/10/27 02:33:33;;;;;;;1.97;0.87;;;14.70;99.90;;;;;;6237095;22;20703;-87
2021/10/27 02:36:00;;;;;;;9.27;1.73;;;14.70;99.90;;;;;;6263903;22;20362;-88
2021/10/27 02:38:25;;;;;;;12.03;2.00;;;14.70;99.90;;;;;;6263924;22;20197;-88
2021/10/27 02:40:51;;;;;;;5.73;2.43;;;14.70;99.90;;;;;;6237156;22;20153;-87
2021/10/27 02:43:17;;;;;;;2.27;1.47;;;14.70;99.90;;;;;;6212165;22;20677;-90
2021/10/27 02:45:44;;;;;;;11.23;1.50;;;14.60;99.90;;;;;;6212431;22;20196;-90
2021/10/27 02:48:10;;;;;;;5.37;1.67;;;14.60;99.90;;;;;;6263310;22;20204;-89
2021/10/27 02:50:35;;;;;;;5.03;2.10;;;14.70;99.90;;;;;;6211741;22;20200;-87
2021/10/27 02:53:01;;;;;;;3.70;0.93;;;14.70;99.90;;;;;;6238209;22;20193;-88
2021/10/27 02:55:30;;;;;;;3.30;1.60;;;14.70;99.90;;;;;;6215049;22;20153;-89
2021/10/27 02:57:57;;;;;;;7.53;1.43;;;14.80;99.90;;;;;;6216666;22;20200;-87
2021/10/27 03:00:24;;;;;;;6.87;1.87;;;14.80;99.90;;;;;;6242453;22;20196;-90
2021/10/27 03:02:50;;;;;;;7.63;1.07;;;14.80;99.90;;;;;;6244295;22;20196;-88
2021/10/27 03:05:16;;;;;;;2.10;1.93;;;14.80;99.90;;;;;;6245456;22;20199;-89
2021/10/27 03:07:42;;;;;;;10.93;2.60;;;14.80;99.90;;;;;;6244874;22;20184;-88
2021/10/27 03:10:08;;;;;;;4.17;1.47;;;14.80;99.90;;;;;;6221076;22;20165;-90
2021/10/27 03:12:34;;;;;;;13.00;1.70;;;14.90;99.90;;;;;;6246335;22;20213;-89
2021/10/27 03:15:00;;;;;;;9.53;1.50;;;14.80;99.90;;;;;;6247179;22;20631;-89
2021/10/27 03:17:26;;;;;;;5.33;1.73;;;14.80;99.90;;;;;;6273884;22;20205;-89
2021/10/27 03:19:52;;;;;;;7.80;1.33;;;14.90;99.90;;;;;;6246892;22;20161;-89
2021/10/27 03:22:18;;;;;;;1.37;0.50;;;14.90;99.90;;;;;;6216134;22;20176;-88
2021/10/27 03:24:44;;;;;;;10.53;1.60;;;14.90;99.90;;;;;;6211828;22;20520;-88
2021/10/27 03:27:10;;;;;;;3.80;1.23;;;14.90;99.90;;;;;;6237123;22;20273;-89
2021/10/27 03:29:36;;;;;;;3.93;0.90;;;14.90;99.90;;;;;;6236332;22;20201;-88
2021/10/27 03:32:02;;;;;;;5.37;1.67;;;14.90;99.90;;;;;;6236525;22;20275;-88
2021/10/27 03:34:28;;;;;;;14.63;2.63;;;14.90;99.90;;;;;;6237615;22;20153;-88
2021/10/27 03:36:54;;;;;;;7.13;1.50;;;14.90;99.90;;;;;;6187312;22;20286;-88
2021/10/27 03:39:20;;;;;;;5.17;1.20;;;14.90;99.90;;;;;;6237191;22;20667;-89
2021/10/27 03:41:46;;;;;;;7.23;1.80;;;14.90;99.90;;;;;;6237126;22;20266;-89
2021/10/27 03:44:13;;;;;;;8.13;1.80;;;14.90;99.90;;;;;;6236890;22;20197;-89
2021/10/27 03:46:38;;;;;;;4.90;1.47;;;14.90;99.90;;;;;;6263480;22;20167;-88
2021/10/27 03:49:04;;;;;;;2.57;1.20;;;14.90;99.90;;;;;;6237269;22;20165;-88
2021/10/27 03:51:30;;;;;;;5.90;0.97;;;14.90;99.90;;;;;;6236845;22;20192;-88
2021/10/27 03:53:56;;;;;;;8.47;1.10;;;14.90;99.90;;;;;;6236628;22;20189;-89
2021/10/27 03:56:22;;;;;;;10.27;2.07;;;14.90;99.90;;;;;;6237141;22;20198;-89
2021/10/27 03:58:48;;;;;;;2.40;1.17;;;14.90;99.90;;;;;;6186654;22;20255;-89
2021/10/27 04:01:14;;;;;;;6.83;1.43;;;14.90;99.90;;;;;;6266384;22;20168;-88
2021/10/27 04:03:40;;;;;;;5.93;1.10;;;14.90;99.90;;;;;;6241089;22;20184;-89
2021/10/27 04:06:06;;;;;;;9.73;2.13;;;14.90;99.90;;;;;;6215933;22;20189;-88
2021/10/27 04:08:32;;;;;;;4.27;1.17;;;14.90;99.90;;;;;;6241668;22;20205;-87
2021/10/27 04:10:57;;;;;;;1.93;1.13;;;14.80;99.90;;;;;;6241874;22;20219;-90
2021/10/27 04:13:24;;;;;;;5.30;1.90;;;14.80;99.90;;;;;;6241485;22;20197;-88
2021/10/27 04:15:50;;;;;;;4.07;1.60;;;14.80;99.90;;;;;;6191190;22;20204;-91
2021/10/27 04:18:17;;;;;;;5.10;1.77;;;14.80;99.90;;;;;;6241730;22;20207;-88
2021/10/27 04:20:43;;;;;;;4.33;1.33;;;14.80;99.90;;;;;;6215958;22;20189;-87
2021/10/27 04:23:09;;;;;;;6.47;1.20;;;14.80;99.90;;;;;;6241933;22;20188;-88
2021/10/27 04:25:35;;;;;;;10.13;2.27;;;14.80;99.90;;;;;;6268582;22;20159;-87
2021/10/27 04:28:02;;;;;;;7.10;2.37;;;14.80;99.90;;;;;;6267766;22;20209;-88
2021/10/27 04:30:28;;;;;;;6.63;1.23;;;14.80;99.90;;;;;;6240597;22;20228;-87
2021/10/27 04:32:54;;;;;;;9.23;1.73;;;14.70;99.90;;;;;;6191074;22;20294;-87
2021/10/27 04:35:21;;;;;;;3.73;1.53;;;14.70;99.90;;;;;;6242401;22;20291;-87
2021/10/27 04:37:48;;;;;;;6.30;2.10;;;14.70;99.90;;;;;;6269145;22;20196;-88
2021/10/27 04:40:16;;;;;;;3.27;1.57;;;14.70;99.90;;;;;;6243800;22;20160;-89
2021/10/27 04:42:42;;;;;;;2.73;1.17;;;14.70;99.90;;;;;;6243757;22;20196;-88
2021/10/27 04:45:09;;;;;;;11.17;1.83;;;14.70;99.90;;;;;;6243323;22;20197;-87
2021/10/27 04:47:36;;;;;;;7.63;1.83;;;14.70;99.90;;;;;;6193265;22;20217;-86
2021/10/27 04:50:04;;;;;;;6.67;1.77;;;14.70;99.90;;;;;;6242631;22;20184;-88
2021/10/27 04:52:30;;;;;;;1.80;1.23;;;14.70;99.90;;;;;;6243930;22;20149;-85
2021/10/27 04:54:57;;;;;;;3.67;1.23;;;14.70;99.90;;;;;;6218351;22;20189;-86
2021/10/27 04:57:23;;;;;;;3.17;1.50;;;14.70;99.90;;;;;;6217735;22;20230;-87
2021/10/27 04:59:49;;;;;;;6.73;1.57;;;14.70;99.90;;;;;;6217963;22;20231;-87
2021/10/27 05:02:17;;;;;;;2.50;0.83;;;14.70;99.90;;;;;;6192653;22;20624;-89
2021/10/27 05:04:44;;;;;;;9.03;1.60;;;14.70;99.90;;;;;;6242753;22;20209;-87
2021/10/27 05:07:12;;;;;;;8.83;1.83;;;14.70;99.90;;;;;;6217515;22;20189;-87
2021/10/27 05:09:38;;;;;;;9.77;1.93;;;14.70;99.90;;;;;;6240054;22;20286;-89
2021/10/27 05:12:05;;;;;;;7.47;1.90;;;14.60;99.90;;;;;;6215574;22;20647;-87
2021/10/27 05:14:31;;;;;;;6.43;2.10;;;14.60;99.90;;;;;;6240287;22;20272;-88
2021/10/27 05:16:57;;;;;;;5.13;1.53;;;14.60;99.90;;;;;;6241636;22;20343;-86
2021/10/27 05:19:23;;;;;;;5.70;2.00;;;14.60;99.90;;;;;;6242068;22;20173;-87
2021/10/27 05:21:50;;;;;;;4.07;1.37;;;14.60;99.90;;;;;;6242484;22;20197;-88
2021/10/27 05:24:15;;;;;;;3.43;1.80;;;14.60;99.90;;;;;;6269443;22;20220;-87
2021/10/27 05:26:41;;;;;;;3.67;1.57;;;14.60;99.90;;;;;;6217325;22;20200;-85
2021/10/27 05:29:07;;;;;;;4.10;1.33;;;14.60;99.90;;;;;;6242519;22;20839;-85
2021/10/27 05:31:33;;;;;;;3.50;1.90;;;14.60;99.90;;;;;;6217905;22;20163;-87
2021/10/27 05:33:59;;;;;;;11.33;1.03;;;14.60;99.90;;;;;;6217029;22;20506;-86
2021/10/27 05:36:26;;;;;;;8.80;1.17;;;14.60;99.90;;;;;;6216928;22;20222;-87
2021/10/27 05:38:52;;;;;;;4.37;1.40;;;14.60;99.90;;;;;;6192697;22;20203;-85
2021/10/27 05:41:18;;;;;;;5.17;2.13;;;14.60;99.90;;;;;;6217214;22;20200;-86
2021/10/27 05:43:45;;;;;;;8.70;2.50;;;14.60;99.90;;;;;;6190091;22;20160;-87
2021/10/27 05:46:12;;;;;;;3.47;1.40;;;14.50;99.90;;;;;;6216477;22;20157;-87
2021/10/27 05:48:42;;;;;;;9.70;2.13;;;14.50;99.90;;;;;;6268677;22;20208;-88
2021/10/27 05:56:20;;;;;;;12.90;1.53;;;14.60;99.90;;;;;;6246221;22;20279;-89
2021/10/27 05:58:47;;;;;;;4.30;1.40;;;14.60;99.90;;;;;;6217523;22;20299;-87
2021/10/27 06:01:14;;;;;;;7.30;1.70;;;14.70;99.90;;;;;;6192638;22;20161;-87
2021/10/27 06:03:40;;;;;;;6.73;1.33;;;14.70;99.90;;;;;;6216881;22;20561;-92
2021/10/27 06:06:06;;;;;;;5.37;1.97;;;14.70;99.90;;;;;;6217230;22;20192;-88
2021/10/27 06:08:32;;;;;;;2.83;1.93;;;14.70;99.90;;;;;;6216619;22;20283;-87
2021/10/27 06:11:06;;;;;;;7.47;2.00;;;14.70;99.90;;;;;;6216182;22;20196;-87
2021/10/27 06:13:35;;;;;;;5.43;1.27;;;14.70;99.90;;;;;;6242232;22;20220;-89
2021/10/27 06:16:01;;;;;;;5.27;1.60;;;14.70;99.90;;;;;;6216726;22;20219;-87
2021/10/27 06:18:27;;;;;;;10.40;7.43;;;14.70;99.90;;;;;;6242427;22;20250;-88
2021/10/27 06:20:54;;;;;;;2.57;1.57;;;14.80;99.90;;;;;;6268548;22;20658;-90
2021/10/27 06:23:19;;;;;;;5.63;1.43;;;14.80;99.90;;;;;;6242148;22;20315;-87
2021/10/27 06:25:47;;;;;;;4.03;1.70;;;14.80;99.90;;;;;;6241336;22;20609;-88
2021/10/27 06:28:17;;;;;;;9.30;3.20;;;14.80;99.90;;;;;;6217899;22;20185;-88
2021/10/27 06:30:56;;;;;;;3.27;1.57;;;14.90;99.90;;;;;;6218162;22;20200;-86
2021/10/27 06:35:58;;;;;;;8.27;2.20;;;14.90;99.90;;;;;;6242072;22;20197;-87
2021/10/27 06:46:37;;;;;;;6.07;2.10;;;14.90;99.90;;;;;;6246010;22;20157;-87
2021/10/27 06:49:04;;;;;;;4.40;3.10;;;14.80;99.90;;;;;;6197301;22;20195;-88
2021/10/27 06:51:30;;;;;;;15.70;3.93;;;14.80;99.90;;;;;;6241183;22;20207;-86
2021/10/27 06:53:56;;;;;;;8.40;2.17;;;14.80;99.90;;;;;;6240962;22;20547;-85
2021/10/27 06:56:23;;;;;;;9.20;1.60;;;14.80;99.90;;;;;;6241424;22;20201;-87
2021/10/27 07:01:28;;;;;;;4.03;0.67;;;15.00;99.90;;;;;;6265227;22;20196;-86
2021/10/27 07:17:15;;;;;;;3.90;3.50;;;15.10;99.90;;;;;;6264290;22;20226;-91
2021/10/27 07:19:41;;;;;;;4.67;2.70;;;15.20;99.90;;;;;;6237671;22;20600;-87
2021/10/27 07:22:08;;;;;;;5.33;2.10;;;15.20;99.90;;;;;;6212973;22;20803;-86
2021/10/27 07:24:34;;;;;;;5.80;2.57;;;15.20;99.90;;;;;;6264523;22;20291;-85
2021/10/27 07:27:05;;;;;;;7.33;1.87;;;15.10;99.90;;;;;;6212860;22;20253;-83
2021/10/27 07:29:31;;;;;;;6.60;2.00;;;15.00;99.90;;;;;;6238780;22;20204;-89
2021/10/27 07:31:57;;;;;;;7.97;2.33;;;15.00;99.90;;;;;;6213893;22;20161;-90
2021/10/27 07:34:35;;;;;;;5.60;1.57;;;14.90;99.90;;;;;;6242023;22;20153;-91
2021/10/27 07:42:23;;;;;;;6.77;2.20;;;14.90;99.90;;;;;;6220153;22;20505;-89
2021/10/27 07:44:49;;;;;;;12.20;2.53;;;14.90;99.90;;;;;;6190225;22;20861;-88
2021/10/27 07:47:17;;;;;;;8.60;2.00;;;14.80;99.90;;;;;;6189756;22;20207;-88
2021/10/27 07:49:43;;;;;;;5.13;2.60;;;14.80;99.90;;;;;;6240158;22;20156;-88
2021/10/27 07:52:08;;;;;;;9.00;2.07;;;14.80;99.90;;;;;;6215780;22;20160;-86
2021/10/27 07:54:35;;;;;;;7.13;2.10;;;14.80;99.90;;;;;;6213866;22;20262;-86
2021/10/27 07:57:01;;;;;;;6.10;2.30;;;14.80;99.90;;;;;;6265541;22;20460;-89
2021/10/27 07:59:29;;;;;;;5.87;2.27;;;14.80;99.90;;;;;;6266448;22;20184;-90
2021/10/27 08:01:55;;;;;;;4.37;2.00;;;14.80;99.90;;;;;;6241421;22;20195;-92
2021/10/27 08:04:22;;;;;;;8.07;2.53;;;14.90;99.90;;;;;;6268661;22;20165;-92
2021/10/27 08:06:47;;;;;;;5.00;3.60;;;14.90;99.90;;;;;;6237894;22;20196;-93
2021/10/27 08:09:14;;;;;;;3.50;2.27;;;14.90;99.90;;;;;;6239563;22;20207;-92
2021/10/27 08:11:40;;;;;;;4.80;2.60;;;15.00;99.90;;;;;;6240007;22;20276;-91
2021/10/27 08:14:06;;;;;;;5.57;2.60;;;15.10;99.90;;;;;;6268541;22;20342;-91
2021/10/27 08:16:33;;;;;;;9.13;3.23;;;15.20;99.90;;;;;;6219560;22;20164;-91
2021/10/27 08:18:59;;;;;;;9.00;3.80;;;15.20;99.90;;;;;;6219409;22;20196;-89
2021/10/27 08:21:25;;;;;;;9.17;4.23;;;15.20;99.90;;;;;;6217637;22;20192;-90
2021/10/27 08:23:52;;;;;;;5.53;2.67;;;15.40;99.90;;;;;;6241742;22;20219;-90
2021/10/27 08:26:22;;;;;;;11.00;3.27;;;15.80;99.90;;;;;;6217217;22;20289;-90
2021/10/27 08:28:53;;;;;;;4.60;2.73;;;16.00;99.90;;;;;;6268097;22;20499;-88
2021/10/27 08:33:59;;;;;;;5.30;2.40;;;16.00;99.90;;;;;;6284678;22;20184;-90
2021/10/27 08:36:25;;;;;;;6.90;2.40;;;15.90;99.90;;;;;;6197958;22;20199;-88
2021/10/27 08:38:52;;;;;;;3.27;2.43;;;15.90;99.90;;;;;;6215716;22;20963;-89
2021/10/27 08:41:18;;;;;;;7.10;2.50;;;15.80;99.90;;;;;;6241585;22;20207;-89
2021/10/27 08:43:44;;;;;;;5.37;2.23;;;15.90;99.90;;;;;;6215772;22;20161;-90
2021/10/27 08:46:13;;;;;;;2.57;2.37;;;15.90;99.90;;;;;;6242304;22;20642;-89
2021/10/27 08:48:44;;;;;;;8.33;2.70;;;15.80;99.90;;;;;;6239657;22;20212;-91
2021/10/27 08:51:11;;;;;;;5.90;2.20;;;15.70;99.90;;;;;;6215431;22;20196;-89
2021/10/27 08:53:37;;;;;;;6.23;1.77;;;15.50;99.90;;;;;;6215678;22;20235;-90
2021/10/27 08:56:05;;;;;;;6.33;1.93;;;15.60;99.90;;;;;;6215521;22;20191;-90
2021/10/27 08:58:42;;;;;;;14.77;2.70;;;15.50;99.90;;;;;;6267635;22;20160;-89
2021/10/27 09:01:15;;;;;;;3.73;1.70;;;15.50;99.90;;;;;;6268207;22;20251;-90
2021/10/27 09:07:29;;;;;;;4.20;1.97;;;15.50;99.90;;;;;;6186851;22;20195;-91
2021/10/27 09:34:26;;;;;;;3.93;2.27;;;15.80;99.90;;;;;;6268695;22;20846;-90
2021/10/27 09:46:17;;;;;;;5.27;2.37;;;15.80;99.90;;;;;;6245768;22;20246;-91
2021/10/27 10:05:20;;;;;;;8.63;3.70;;;15.50;99.90;;;;;;6220462;22;20184;-89
2021/10/27 10:07:46;;;;;;;6.80;2.93;;;15.50;99.90;;;;;;6215858;22;20191;-89
2021/10/27 10:10:14;;;;;;;3.70;2.57;;;15.50;99.90;;;;;;6241035;22;20153;-88
2021/10/27 10:12:52;;;;;;;4.57;3.23;;;15.50;99.90;;;;;;6240293;22;20586;-88
2021/10/27 10:15:27;;;;;;;4.57;3.17;;;15.50;99.90;;;;;;6240449;22;20196;-89
2021/10/27 10:17:53;;;;;;;8.50;3.67;;;15.50;99.90;;;;;;6267751;22;20214;-87
2021/10/27 10:20:21;;;;;;;7.83;3.83;;;15.50;99.90;;;;;;6266631;22;20191;-86
2021/10/27 10:22:47;;;;;;;5.37;2.63;;;15.50;99.90;;;;;;6239849;22;20149;-88
2021/10/27 10:25:22;;;;;;;5.07;1.93;;;15.60;99.90;;;;;;6215213;22;20187;-89
2021/10/27 10:27:49;;;;;;;11.33;2.53;;;15.60;99.90;;;;;;6266153;22;20214;-88
2021/10/27 10:30:58;;;;;;;3.43;2.33;;;15.60;99.90;;;;;;6267347;22;20196;-89
2021/10/27 10:33:42;;;;;;;7.93;2.53;;;15.60;99.90;;;;;;6240457;22;20200;-89
2021/10/27 10:36:13;;;;;;;5.60;2.20;;;15.70;99.90;;;;;;6240654;22;20191;-90
2021/10/27 11:37:38;;;;;;;2.83;1.70;;;16.50;99.90;;;;;;6268015;22;20187;-94
2021/10/27 11:42:41;;;;;;;4.77;1.93;;;16.40;99.90;;;;;;6267109;22;20197;-88
2021/10/27 11:46:10;;;;;;;4.33;1.70;;;16.50;99.90;;;;;;6266634;22;20191;-89
2021/10/27 11:50:58;;;;;;;3.27;1.60;;;16.50;99.90;;;;;;6215862;22;20204;-91
2021/10/27 11:53:34;;;;;;;4.43;1.60;;;16.50;99.90;;;;;;6264815;22;20257;-89
2021/10/27 11:56:15;;;;;;;7.10;1.70;;;16.40;99.90;;;;;;6264454;22;20192;-88
2021/10/27 11:58:44;;;;;;;3.43;1.83;;;16.30;99.90;;;;;;6266205;22;20140;-87
2021/10/27 12:01:37;;;;;;;3.77;1.43;;;16.40;99.90;;;;;;6239469;22;20153;-87
2021/10/27 12:04:10;;;;;;;2.77;2.00;;;16.30;99.90;;;;;;6239941;22;20183;-89
2021/10/27 12:20:09;;;;;;;5.37;1.30;;;16.30;99.90;;;;;;6218837;22;20631;-87
2021/10/27 12:22:36;;;;;;;2.97;1.80;;;16.10;99.90;;;;;;6240095;22;20161;-87
2021/10/27 12:25:06;;;;;;;2.67;1.67;;;16.10;99.90;;;;;;6238870;22;20283;-88
2021/10/27 12:27:37;;;;;;;6.13;2.17;;;16.10;99.90;;;;;;6239491;22;20219;-87
2021/10/27 12:30:06;;;;;;;3.90;1.27;;;16.10;99.90;;;;;;6236941;22;20193;-89
2021/10/27 12:32:34;;;;;;;3.63;1.40;;;16.10;99.90;;;;;;6237435;22;20257;-89
2021/10/27 12:35:25;;;;;;;2.30;1.47;;;16.00;99.90;;;;;;6213634;22;20864;-90
2021/10/27 12:37:56;;;;;;;2.87;1.50;;;16.00;99.90;;;;;;6236748;22;20179;-90
2021/10/27 12:40:31;;;;;;;3.30;1.50;;;16.00;99.90;;;;;;6213035;22;20149;-89
2021/10/27 12:43:04;;;;;;;3.90;1.53;;;16.00;99.90;;;;;;6236765;22;20192;-90
2021/10/27 12:45:37;;;;;;;3.90;1.47;;;15.90;99.90;;;;;;6235534;22;20197;-90
2021/10/27 12:48:05;;;;;;;7.47;1.70;;;15.90;99.90;;;;;;6263593;22;20204;-90
2021/10/27 12:50:32;;;;;;;1.97;1.07;;;15.90;99.90;;;;;;6264713;22;20250;-88
2021/10/27 12:53:00;;;;;;;3.50;1.23;;;15.90;99.90;;;;;;6214114;22;20192;-89
2021/10/27 12:55:35;;;;;;;2.13;1.23;;;15.90;99.90;;;;;;6240951;22;20149;-89
2021/10/27 12:58:12;;;;;;;3.77;1.67;;;15.90;99.90;;;;;;6241582;22;20191;-90
2021/10/27 13:11:45;;;;;;;5.23;1.60;;;15.90;99.90;;;;;;6268098;22;20524;-88
2021/10/27 13:17:02;;;;;;;10.53;2.07;;;16.00;99.90;;;;;;6214676;22;20664;-89
2021/10/27 13:30:16;;;;;;;1.70;1.53;;;16.00;99.90;;;;;;6251550;22;20265;-90
2021/10/27 13:32:53;;;;;;;3.03;1.40;;;16.10;99.90;;;;;;6229768;22;20204;-89
2021/10/27 13:35:20;;;;;;;3.00;2.03;;;16.00;99.90;;;;;;6195527;22;20193;-89
2021/10/27 13:37:47;;;;;;;4.93;1.43;;;16.10;99.90;;;;;;6240213;22;20167;-87
2021/10/27 13:40:13;;;;;;;6.47;1.77;;;16.00;99.90;;;;;;6242242;22;20148;-87
2021/10/27 14:06:52;;;;;;;3.93;2.27;;;15.40;99.90;;;;;;6244874;22;20593;-89
2021/10/27 14:10:04;;;;;;;3.30;1.97;;;15.30;99.90;;;;;;6267792;22;20197;-89
2021/10/27 14:58:49;;;;;;;4.87;1.87;;;15.20;99.90;;;;;;6223234;22;20193;-91
2021/10/27 15:21:12;;;;;;;2.77;1.90;;;15.00;99.90;;;;;;6233537;22;20197;-88
2021/10/27 15:29:17;;;;;;;3.93;2.50;;;14.90;99.90;;;;;;6217001;22;20268;-88
2021/10/27 15:44:18;;;;;;;5.47;3.13;;;14.80;99.90;;;;;;6280359;22;20192;-88
2021/10/27 15:52:20;;;;;;;4.00;2.33;;;14.80;99.90;;;;;;6244115;22;20180;-87
2021/10/27 15:54:46;;;;;;;4.47;3.17;;;14.80;99.90;;;;;;6215778;22;20242;-88
2021/10/27 15:57:13;;;;;;;5.83;3.33;;;14.80;99.90;;;;;;6237972;22;20204;-86
2021/10/27 15:59:41;;;;;;;4.50;2.47;;;14.80;99.90;;;;;;6246680;22;20187;-87
2021/10/27 16:02:07;;;;;;;3.60;2.23;;;14.80;99.90;;;;;;6249227;22;20184;-87
2021/10/27 16:04:36;;;;;;;4.63;2.50;;;14.70;99.90;;;;;;6214234;22;20187;-85
2021/10/27 16:07:05;;;;;;;2.93;2.37;;;14.70;99.90;;;;;;6238218;22;20246;-86
2021/10/27 16:09:37;;;;;;;4.23;2.40;;;14.70;99.90;;;;;;6213144;22;20196;-86
2021/10/27 16:12:07;;;;;;;6.37;3.27;;;14.70;99.90;;;;;;6239330;22;20998;-86
2021/10/27 16:14:33;;;;;;;4.23;2.63;;;14.70;99.90;;;;;;6265545;22;20204;-86
2021/10/27 16:16:59;;;;;;;5.87;2.60;;;14.70;99.90;;;;;;6238622;22;20200;-86
2021/10/27 16:19:28;;;;;;;2.67;1.87;;;14.70;99.90;;;;;;6214551;22;20889;-85
2021/10/27 16:21:54;;;;;;;4.80;2.23;;;14.70;99.90;;;;;;6238614;22;20330;-86
2021/10/27 16:24:20;;;;;;;6.10;2.73;;;14.60;99.90;;;;;;6236868;22;20200;-84
2021/10/27 16:26:48;;;;;;;2.57;2.03;;;14.60;99.90;;;;;;6236699;22;20196;-87
2021/10/27 16:29:17;;;;;;;3.10;2.43;;;14.60;99.90;;;;;;6210322;22;20200;-90
2021/10/27 16:31:43;;;;;;;3.13;2.03;;;14.60;99.90;;;;;;6237857;22;20620;-83
2021/10/27 16:34:13;;;;;;;5.77;2.80;;;14.60;99.90;;;;;;6239862;22;20164;-85
2021/10/27 16:36:40;;;;;;;6.57;2.60;;;14.60;99.90;;;;;;6238880;22;20232;-85
2021/10/27 16:39:06;;;;;;;4.27;2.87;;;14.50;99.90;;;;;;6264567;22;20200;-84
2021/10/27 16:41:32;;;;;;;6.63;3.00;;;14.50;99.90;;;;;;6188426;22;20246;-85
2021/10/27 16:43:58;;;;;;;6.80;2.70;;;14.40;99.90;;;;;;6187377;22;20283;-86
2021/10/27 16:46:24;;;;;;;4.07;2.87;;;14.40;99.90;;;;;;6263224;22;20778;-86
2021/10/27 16:48:50;;;;;;;4.47;2.60;;;14.40;99.90;;;;;;6235991;22;20269;-84
2021/10/27 16:51:19;;;;;;;8.57;3.77;;;14.40;99.90;;;;;;6236851;22;20203;-85
2021/10/27 16:53:47;;;;;;;4.57;2.33;;;14.30;99.90;;;;;;6209007;22;20192;-84
2021/10/27 16:56:13;;;;;;;4.77;2.10;;;14.40;99.90;;;;;;6226541;22;20188;-85
2021/10/27 16:58:39;;;;;;;2.97;2.40;;;14.30;99.90;;;;;;6212425;22;20212;-85
2021/10/27 17:01:05;;;;;;;12.73;2.43;;;14.30;99.90;;;;;;6265412;22;20157;-85
2021/10/27 17:03:31;;;;;;;8.77;3.27;;;14.30;99.90;;;;;;6248220;22;20189;-85
2021/10/27 17:05:57;;;;;;;1.90;1.27;;;14.30;99.90;;;;;;6238002;22;20195;-85
2021/10/27 17:08:25;;;;;;;5.27;2.60;;;14.30;99.90;;;;;;6236683;22;20277;-85
2021/10/27 17:10:54;;;;;;;1.70;1.60;;;14.40;99.90;;;;;;6213821;22;20149;-85
2021/10/27 17:13:23;;;;;;;2.30;1.70;;;14.40;99.90;;;;;;6238397;22;20193;-86
2021/10/27 17:15:49;;;;;;;1.77;1.60;;;14.40;99.90;;;;;;6265619;22;20643;-87
2021/10/27 17:18:15;;;;;;;2.97;2.03;;;14.40;99.90;;;;;;6238265;22;20863;-86
2021/10/27 17:20:43;;;;;;;3.70;1.77;;;14.40;99.90;;;;;;6213239;22;20197;-84
2021/10/27 17:23:16;;;;;;;5.57;2.63;;;14.40;99.90;;;;;;6237910;22;20266;-84
2021/10/27 17:25:42;;;;;;;2.83;1.90;;;14.40;99.90;;;;;;6237331;22;20169;-84
2021/10/27 17:28:11;;;;;;;5.10;2.20;;;14.40;99.90;;;;;;6264406;22;20231;-86
2021/10/27 17:30:37;;;;;;;5.23;2.83;;;14.40;99.90;;;;;;6238179;22;20235;-85
2021/10/27 17:33:04;;;;;;;4.57;2.60;;;14.40;99.90;;;;;;6212397;22;20283;-85
2021/10/27 17:35:30;;;;;;;3.13;2.00;;;14.30;99.90;;;;;;6212656;22;20193;-86
2021/10/27 17:37:56;;;;;;;10.93;2.80;;;14.30;99.90;;;;;;6237341;22;20180;-85
2021/10/27 17:40:30;;;;;;;3.33;2.50;;;14.30;99.90;;;;;;6238832;22;20191;-85
2021/10/27 17:42:56;;;;;;;3.93;2.10;;;14.30;99.90;;;;;;6266448;22;20196;-86
2021/10/27 17:45:26;;;;;;;5.30;2.50;;;14.30;99.90;;;;;;6214407;22;20650;-87
2021/10/27 17:47:59;;;;;;;6.63;3.37;;;14.30;99.90;;;;;;6240451;22;20848;-85
2021/10/27 17:58:35;;;;;;;5.73;3.57;;;14.20;99.90;;;;;;6268097;22;20181;-88
2021/10/27 18:01:04;;;;;;;2.33;2.13;;;14.20;99.90;;;;;;6241747;22;20340;-86
2021/10/27 18:03:32;;;;;;;9.60;2.83;;;14.20;99.90;;;;;;6240316;22;20919;-87
2021/10/27 18:06:05;;;;;;;4.43;2.20;;;14.20;99.90;;;;;;6239633;22;20219;-85
2021/10/27 18:08:31;;;;;;;7.30;2.57;;;14.20;99.90;;;;;;6240606;22;20201;-86